createdAt,value
2018-05-08T00:00:21.769Z,13.33
2018-05-08T00:02:49.293Z,13.44
2018-05-08T00:05:16.900Z,13.54
2018-05-08T00:07:44.424Z,13.86
2018-05-08T00:10:12.424Z,14.09
2018-05-08T00:12:39.988Z,13.95
2018-05-08T00:15:07.553Z,13.78
2018-05-08T00:17:35.110Z,13.77
2018-05-08T00:20:02.663Z,13.82
2018-05-08T00:22:30.213Z,13.83
2018-05-08T00:24:57.791Z,13.59
2018-05-08T00:27:25.344Z,13.57
2018-05-08T00:29:52.906Z,13.68
2018-05-08T00:32:20.567Z,13.60
2018-05-08T00:34:48.125Z,13.49
2018-05-08T00:37:15.897Z,13.56
2018-05-08T00:39:43.452Z,13.48
2018-05-08T00:42:11.030Z,13.15
2018-05-08T00:44:38.557Z,13.07
2018-05-08T00:47:06.110Z,12.81
2018-05-08T00:49:33.688Z,13.08
2018-05-08T00:52:01.360Z,12.68
2018-05-08T00:54:40.668Z,12.80
2018-05-08T00:57:08.347Z,12.83
2018-05-08T00:59:35.871Z,12.56
2018-05-08T01:02:03.436Z,12.53
2018-05-08T01:04:31.129Z,12.50
2018-05-08T01:06:58.649Z,12.59
2018-05-08T01:09:26.228Z,12.88
2018-05-08T01:11:53.758Z,12.75
2018-05-08T01:14:21.382Z,12.93
2018-05-08T01:16:48.939Z,12.79
2018-05-08T01:19:16.590Z,12.43
2018-05-08T01:21:44.146Z,12.06
2018-05-08T01:24:11.795Z,12.21
2018-05-08T01:26:39.375Z,11.97
2018-05-08T01:29:07.041Z,12.06
2018-05-08T01:31:34.656Z,12.29
2018-05-08T01:34:02.153Z,12.42
2018-05-08T01:36:30.603Z,12.60
2018-05-08T01:38:58.154Z,12.69
2018-05-08T01:41:25.707Z,12.55
2018-05-08T01:43:53.313Z,12.43
2018-05-08T01:46:20.973Z,12.16
2018-05-08T01:48:48.484Z,11.90
2018-05-08T01:51:16.040Z,11.73
2018-05-08T01:53:44.022Z,11.78
2018-05-08T01:56:11.569Z,11.73
2018-05-08T01:58:39.178Z,11.92
2018-05-08T02:01:06.725Z,11.84
2018-05-08T02:03:34.297Z,11.93
2018-05-08T02:06:01.960Z,12.13
2018-05-08T02:08:29.535Z,12.31
2018-05-08T02:10:57.086Z,12.01
2018-05-08T02:13:24.945Z,12.19
2018-05-08T02:15:52.487Z,12.22
2018-05-08T02:18:20.040Z,12.13
2018-05-08T02:20:47.602Z,11.83
2018-05-08T02:23:15.297Z,12.07
2018-05-08T02:25:42.822Z,12.15
2018-05-08T02:28:10.404Z,12.31
2018-05-08T02:30:37.965Z,12.18
2018-05-08T02:33:05.504Z,12.14
2018-05-08T02:35:33.085Z,11.85
2018-05-08T02:38:00.658Z,11.88
2018-05-08T02:40:28.212Z,11.68
2018-05-08T02:42:55.765Z,11.66
2018-05-08T02:45:23.315Z,11.60
2018-05-08T02:47:50.889Z,11.68
2018-05-08T02:50:18.473Z,11.41
2018-05-08T02:52:46.104Z,11.51
2018-05-08T02:55:14.589Z,11.44
2018-05-08T02:57:42.130Z,11.43
2018-05-08T03:00:09.806Z,11.21
2018-05-08T03:02:37.376Z,11.13
2018-05-08T03:05:05.034Z,11.33
2018-05-08T03:07:32.586Z,11.39
2018-05-08T03:10:00.167Z,11.36
2018-05-08T03:12:27.689Z,11.40
2018-05-08T03:14:55.264Z,11.56
2018-05-08T03:17:22.789Z,11.77
2018-05-08T03:19:50.495Z,11.53
2018-05-08T03:22:18.058Z,11.13
2018-05-08T03:24:45.707Z,11.13
2018-05-08T03:27:13.370Z,10.80
2018-05-08T03:29:40.929Z,11.01
2018-05-08T03:32:08.477Z,11.13
2018-05-08T03:34:36.061Z,11.47
2018-05-08T03:37:03.614Z,11.33
2018-05-08T03:39:31.271Z,11.34
2018-05-08T03:41:58.862Z,11.14
2018-05-08T03:44:26.394Z,10.72
2018-05-08T03:46:53.947Z,10.83
2018-05-08T03:49:21.519Z,10.86
2018-05-08T03:51:49.176Z,11.13
2018-05-08T03:54:16.728Z,10.91
2018-05-08T03:56:44.903Z,10.74
2018-05-08T03:59:12.463Z,10.67
2018-05-08T04:01:51.914Z,10.59
2018-05-08T04:04:31.185Z,10.45
2018-05-08T04:07:10.583Z,10.40
2018-05-08T04:09:38.115Z,10.77
2018-05-08T04:12:05.694Z,10.79
2018-05-08T04:14:33.249Z,10.87
2018-05-08T04:17:00.811Z,10.72
2018-05-08T04:19:28.396Z,10.78
2018-05-08T04:21:56.032Z,10.56
2018-05-08T04:24:23.599Z,10.37
2018-05-08T04:26:51.156Z,10.45
2018-05-08T04:29:18.814Z,10.52
2018-05-08T04:31:46.338Z,10.26
2018-05-08T04:34:14.965Z,10.25
2018-05-08T04:36:42.642Z,10.35
2018-05-08T04:39:10.280Z,10.45
2018-05-08T04:41:37.794Z,10.74
2018-05-08T04:44:05.403Z,10.90
2018-05-08T04:46:32.924Z,11.02
2018-05-08T04:49:00.527Z,11.12
2018-05-08T04:51:28.081Z,11.14
2018-05-08T04:53:55.743Z,11.31
2018-05-08T04:56:23.298Z,11.14
2018-05-08T04:58:50.885Z,11.28
2018-05-08T05:01:19.043Z,11.60
2018-05-08T05:03:46.592Z,11.69
2018-05-08T05:06:15.041Z,11.86
2018-05-08T05:08:42.572Z,11.97
2018-05-08T05:11:10.151Z,12.01
2018-05-08T05:13:37.753Z,12.32
2018-05-08T05:16:05.301Z,12.42
2018-05-08T05:18:32.832Z,12.54
2018-05-08T05:21:00.378Z,12.66
2018-05-08T05:23:27.903Z,12.85
2018-05-08T05:25:55.863Z,13.10
2018-05-08T05:28:23.466Z,13.31
2018-05-08T05:30:51.066Z,13.55
2018-05-08T05:33:18.638Z,13.68
2018-05-08T05:35:46.169Z,13.80
2018-05-08T05:38:13.722Z,13.95
2018-05-08T05:40:41.328Z,14.13
2018-05-08T05:43:08.981Z,14.32
2018-05-08T05:45:36.546Z,14.54
2018-05-08T05:48:04.200Z,14.74
2018-05-08T05:50:31.733Z,14.87
2018-05-08T05:52:59.323Z,15.01
2018-05-08T05:55:27.296Z,15.12
2018-05-08T05:57:54.904Z,15.24
2018-05-08T06:00:22.442Z,15.41
2018-05-08T06:02:49.996Z,15.52
2018-05-08T06:05:17.547Z,15.66
2018-05-08T06:07:45.248Z,15.79
2018-05-08T06:10:12.954Z,15.90
2018-05-08T06:12:40.506Z,16.02
2018-05-08T06:15:08.083Z,16.11
2018-05-08T06:20:06.027Z,16.31
2018-05-08T06:22:33.735Z,16.44
2018-05-08T06:25:01.383Z,16.60
2018-05-08T06:27:28.915Z,16.65
2018-05-08T06:29:56.470Z,16.74
2018-05-08T06:32:23.997Z,16.92
2018-05-08T06:34:51.724Z,16.98
2018-05-08T06:37:19.281Z,17.03
2018-05-08T06:39:46.856Z,17.10
2018-05-08T06:42:15.430Z,17.14
2018-05-08T06:44:43.011Z,17.19
2018-05-08T06:47:10.534Z,17.29
2018-05-08T06:49:38.211Z,17.46
2018-05-08T06:52:05.775Z,17.52
2018-05-08T06:54:33.442Z,17.55
2018-05-08T06:57:00.969Z,17.66
2018-05-08T06:59:28.547Z,17.76
2018-05-08T07:01:56.094Z,17.85
2018-05-08T07:04:23.666Z,17.98
2018-05-08T07:06:51.227Z,18.05
2018-05-08T07:09:18.804Z,18.22
2018-05-08T07:11:46.424Z,18.37
2018-05-08T07:14:13.955Z,18.43
2018-05-08T07:16:41.513Z,18.39
2018-05-08T07:19:09.059Z,18.43
2018-05-08T07:21:36.614Z,18.63
2018-05-08T07:24:07.587Z,18.71
2018-05-08T07:26:35.493Z,18.86
2018-05-08T07:29:03.720Z,18.90
2018-05-08T07:31:31.330Z,18.93
2018-05-08T07:33:58.876Z,18.96
2018-05-08T07:36:26.653Z,19.07
2018-05-08T07:38:54.326Z,19.08
2018-05-08T07:41:22.035Z,19.18
2018-05-08T07:43:49.848Z,19.22
2018-05-08T07:46:17.438Z,19.44
2018-05-08T07:48:46.293Z,19.54
2018-05-08T07:51:14.820Z,19.62
2018-05-08T07:53:42.346Z,19.70
2018-05-08T07:56:10.822Z,19.74
2018-05-08T07:58:38.499Z,19.70
2018-05-08T08:01:07.124Z,19.82
2018-05-08T08:03:34.647Z,20.02
2018-05-08T08:06:02.932Z,20.16
2018-05-08T08:08:30.506Z,20.18
2018-05-08T08:10:58.267Z,20.05
2018-05-08T08:13:27.008Z,20.15
2018-05-08T08:15:54.873Z,20.27
2018-05-08T08:18:23.511Z,20.40
2018-05-08T08:20:51.067Z,20.45
2018-05-08T08:23:19.445Z,20.58
2018-05-08T08:25:47.046Z,20.57
2018-05-08T08:28:15.773Z,20.81
2018-05-08T08:30:43.621Z,20.77
2018-05-08T08:33:11.275Z,20.86
2018-05-08T08:35:38.912Z,20.83
2018-05-08T08:38:06.939Z,20.87
2018-05-08T08:40:34.780Z,20.93
2018-05-08T08:43:02.387Z,21.13
2018-05-08T08:45:30.636Z,21.31
2018-05-08T08:48:00.039Z,21.62
2018-05-08T08:50:27.645Z,21.66
2018-05-08T08:52:55.226Z,21.73
2018-05-08T08:55:22.746Z,21.65
2018-05-08T08:57:50.454Z,21.57
2018-05-08T09:00:18.119Z,21.78
2018-05-08T09:02:47.006Z,21.83
2018-05-08T09:05:14.544Z,21.98
2018-05-08T09:07:42.430Z,21.78
2018-05-08T09:10:10.515Z,21.85
2018-05-08T09:12:38.116Z,21.89
2018-05-08T09:15:05.663Z,21.93
2018-05-08T09:17:36.497Z,22.43
2018-05-08T09:20:04.427Z,22.55
2018-05-08T09:22:32.125Z,22.54
2018-05-08T09:24:59.935Z,22.48
2018-05-08T09:27:28.132Z,22.46
2018-05-08T09:29:55.691Z,22.49
2018-05-08T09:32:23.353Z,22.45
2018-05-08T09:34:51.186Z,22.86
2018-05-08T09:37:18.790Z,22.81
2018-05-08T09:39:46.344Z,22.79
2018-05-08T09:42:15.677Z,23.00
2018-05-08T09:44:43.322Z,23.16
2018-05-08T09:47:10.968Z,23.11
2018-05-08T09:49:38.727Z,23.00
2018-05-08T09:52:06.905Z,23.01
2018-05-08T09:54:34.482Z,23.11
2018-05-08T09:57:03.059Z,23.41
2018-05-08T09:59:31.608Z,23.41
2018-05-08T10:01:59.184Z,23.29
2018-05-08T10:04:28.817Z,23.21
2018-05-08T10:06:56.566Z,23.21
2018-05-08T10:09:26.671Z,23.28
2018-05-08T10:11:55.165Z,23.52
2018-05-08T10:14:23.639Z,23.45
2018-05-08T10:16:51.198Z,23.79
2018-05-08T10:19:19.677Z,23.55
2018-05-08T10:21:48.745Z,23.58
2018-05-08T10:24:22.236Z,23.68
2018-05-08T10:26:50.494Z,23.68
2018-05-08T10:29:18.831Z,23.88
2018-05-08T10:31:46.696Z,23.72
2018-05-08T10:34:14.356Z,24.00
2018-05-08T10:36:42.758Z,23.93
2018-05-08T10:39:10.745Z,24.11
2018-05-08T10:41:38.469Z,24.24
2018-05-08T10:44:07.267Z,24.19
2018-05-08T10:46:35.225Z,24.19
2018-05-08T10:49:03.829Z,24.35
2018-05-08T10:51:35.237Z,24.29
2018-05-08T10:54:04.111Z,24.52
2018-05-08T10:56:32.324Z,24.69
2018-05-08T10:59:00.161Z,24.59
2018-05-08T11:01:27.714Z,24.57
2018-05-08T11:03:56.029Z,24.63
2018-05-08T11:06:23.690Z,24.85
2018-05-08T11:08:51.845Z,24.81
2018-05-08T11:11:19.449Z,24.90
2018-05-08T11:13:47.029Z,25.14
2018-05-08T11:16:15.280Z,25.07
2018-05-08T11:18:42.832Z,25.11
2018-05-08T11:21:10.381Z,25.09
2018-05-08T11:23:37.935Z,25.21
2018-05-08T11:26:05.514Z,25.25
2018-05-08T11:28:33.055Z,25.04
2018-05-08T11:31:00.611Z,25.31
2018-05-08T11:33:28.172Z,25.39
2018-05-08T11:35:55.717Z,25.74
2018-05-08T11:38:23.249Z,25.50
2018-05-08T11:40:50.852Z,25.44
2018-05-08T11:43:18.349Z,25.54
2018-05-08T11:45:45.972Z,25.61
2018-05-08T11:48:13.641Z,25.74
2018-05-08T11:50:41.207Z,25.54
2018-05-08T11:53:08.761Z,25.52
2018-05-08T11:55:36.338Z,25.72
2018-05-08T11:58:03.979Z,25.99
2018-05-08T12:00:31.493Z,25.66
2018-05-08T12:02:59.094Z,25.64
2018-05-08T12:05:26.623Z,25.62
2018-05-08T12:07:54.180Z,25.76
2018-05-08T12:10:22.497Z,25.87
2018-05-08T12:12:50.052Z,25.56
2018-05-08T12:15:17.606Z,25.93
2018-05-08T12:17:45.159Z,25.99
2018-05-08T12:20:12.686Z,26.15
2018-05-08T12:22:40.238Z,26.12
2018-05-08T12:25:07.846Z,26.24
2018-05-08T12:27:35.418Z,26.58
2018-05-08T12:30:02.945Z,26.41
2018-05-08T12:32:30.500Z,26.17
2018-05-08T12:34:58.025Z,26.39
2018-05-08T12:37:25.600Z,26.29
2018-05-08T12:39:53.130Z,26.79
2018-05-08T12:42:20.658Z,26.69
2018-05-08T12:44:48.209Z,26.81
2018-05-08T12:47:15.778Z,26.84
2018-05-08T12:49:43.418Z,26.95
2018-05-08T12:52:10.963Z,26.88
2018-05-08T12:54:38.570Z,26.63
2018-05-08T12:57:06.120Z,26.71
2018-05-08T12:59:33.781Z,26.63
2018-05-08T13:02:01.301Z,27.12
2018-05-08T13:04:28.873Z,26.87
2018-05-08T13:06:56.472Z,26.85
2018-05-08T13:09:24.133Z,26.75
2018-05-08T13:11:52.704Z,26.95
2018-05-08T13:14:20.233Z,26.99
2018-05-08T13:16:47.837Z,27.07
2018-05-08T13:19:15.391Z,27.30
2018-05-08T13:21:43.048Z,27.19
2018-05-08T13:24:10.613Z,27.08
2018-05-08T13:26:38.252Z,27.53
2018-05-08T13:29:05.798Z,27.65
2018-05-08T13:31:33.499Z,27.61
2018-05-08T13:34:01.052Z,27.43
2018-05-08T13:36:30.774Z,27.45
2018-05-08T13:38:58.316Z,27.68
2018-05-08T13:41:25.978Z,27.59
2018-05-08T13:43:53.641Z,27.40
2018-05-08T13:46:21.214Z,27.44
2018-05-08T13:48:48.782Z,27.88
2018-05-08T13:51:16.341Z,27.91
2018-05-08T13:53:43.878Z,27.97
2018-05-08T13:56:11.439Z,28.15
2018-05-08T13:58:38.998Z,28.00
2018-05-08T14:01:06.557Z,28.14
2018-05-08T14:03:34.106Z,28.06
2018-05-08T14:06:01.682Z,27.82
2018-05-08T14:08:29.232Z,27.72
2018-05-08T14:10:56.781Z,27.44
2018-05-08T14:13:24.353Z,27.73
2018-05-08T14:15:52.941Z,28.14
2018-05-08T14:18:20.514Z,27.83
2018-05-08T14:20:48.056Z,27.95
2018-05-08T14:23:15.622Z,27.78
2018-05-08T14:25:43.177Z,27.97
2018-05-08T14:28:10.735Z,28.33
2018-05-08T14:30:38.307Z,28.18
2018-05-08T14:33:05.877Z,28.13
2018-05-08T14:35:33.408Z,28.25
2018-05-08T14:38:00.978Z,28.31
2018-05-08T14:40:28.533Z,28.32
2018-05-08T14:42:56.210Z,28.58
2018-05-08T14:45:23.766Z,28.53
2018-05-08T14:47:51.420Z,28.54
2018-05-08T14:50:18.976Z,28.52
2018-05-08T14:52:46.535Z,28.45
2018-05-08T14:55:14.154Z,28.64
2018-05-08T14:57:41.731Z,28.53
2018-05-08T15:00:09.333Z,28.72
2018-05-08T15:02:36.883Z,28.76
2018-05-08T15:05:04.539Z,28.68
2018-05-08T15:07:32.065Z,28.63
2018-05-08T15:09:59.616Z,28.43
2018-05-08T15:12:27.141Z,28.65
2018-05-08T15:14:54.693Z,28.47
2018-05-08T15:17:23.257Z,28.70
2018-05-08T15:19:50.874Z,28.83
2018-05-08T15:22:18.466Z,29.12
2018-05-08T15:24:46.002Z,28.75
2018-05-08T15:27:13.530Z,29.04
2018-05-08T15:29:41.157Z,29.21
2018-05-08T15:32:08.687Z,29.16
2018-05-08T15:34:36.265Z,29.19
2018-05-08T15:37:03.835Z,29.06
2018-05-08T15:39:31.410Z,29.38
2018-05-08T15:41:58.948Z,29.45
2018-05-08T15:44:26.523Z,29.35
2018-05-08T15:46:54.103Z,29.42
2018-05-08T15:49:21.734Z,29.55
2018-05-08T15:51:49.397Z,29.92
2018-05-08T15:54:17.030Z,29.91
2018-05-08T15:56:44.607Z,29.63
2018-05-08T15:59:12.183Z,29.81
2018-05-08T16:01:39.845Z,30.02
2018-05-08T16:04:07.387Z,30.13
2018-05-08T16:06:34.940Z,30.21
2018-05-08T16:09:03.365Z,30.21
2018-05-08T16:11:31.013Z,30.15
2018-05-08T16:13:58.574Z,30.32
2018-05-08T16:16:26.146Z,30.46
2018-05-08T16:18:53.824Z,30.76
2018-05-08T16:21:21.453Z,30.64
2018-05-08T16:23:48.977Z,30.70
2018-05-08T16:26:16.667Z,30.83
2018-05-08T16:28:44.221Z,30.75
2018-05-08T16:31:11.780Z,31.00
2018-05-08T16:33:39.341Z,30.79
2018-05-08T16:36:07.016Z,30.61
2018-05-08T16:38:34.568Z,30.62
2018-05-08T16:41:02.122Z,30.64
2018-05-08T16:43:29.683Z,30.31
2018-05-08T16:45:57.250Z,30.40
2018-05-08T16:48:24.803Z,30.32
2018-05-08T16:50:52.378Z,30.45
2018-05-08T16:53:19.928Z,30.45
2018-05-08T16:55:47.587Z,30.29
2018-05-08T16:58:15.142Z,30.94
2018-05-08T17:00:42.701Z,35.06
2018-05-08T17:03:10.265Z,35.43
2018-05-08T17:05:37.899Z,35.99
2018-05-08T17:08:05.493Z,35.95
2018-05-08T17:10:33.109Z,36.56
2018-05-08T17:13:00.707Z,37.84
2018-05-08T17:15:28.253Z,36.14
2018-05-08T17:17:55.824Z,36.82
2018-05-08T17:20:23.383Z,37.47
2018-05-08T17:22:51.056Z,37.48
2018-05-08T17:25:18.611Z,37.08
2018-05-08T17:27:46.163Z,35.78
2018-05-08T17:30:13.722Z,37.23
2018-05-08T17:32:41.280Z,36.52
2018-05-08T17:35:08.841Z,35.55
2018-05-08T17:37:36.519Z,35.76
2018-05-08T17:40:04.174Z,35.91
2018-05-08T17:42:31.827Z,36.46
2018-05-08T17:44:59.356Z,36.02
2018-05-08T17:47:26.950Z,36.03
2018-05-08T17:49:54.482Z,35.33
2018-05-08T17:52:22.180Z,34.79
2018-05-08T17:54:49.737Z,33.25
2018-05-08T17:57:17.568Z,33.95
2018-05-08T17:59:45.153Z,33.60
2018-05-08T18:02:12.746Z,31.70
2018-05-08T18:04:40.380Z,30.77
2018-05-08T18:07:07.948Z,30.10
2018-05-08T18:09:35.500Z,30.42
2018-05-08T18:12:03.155Z,29.85
2018-05-08T18:14:30.713Z,29.86
2018-05-08T18:16:58.377Z,29.48
2018-05-08T18:19:25.936Z,28.53
2018-05-08T18:21:53.606Z,28.20
2018-05-08T18:24:21.139Z,27.74
2018-05-08T18:26:48.717Z,27.32
2018-05-08T18:29:16.242Z,27.13
2018-05-08T18:31:43.819Z,26.75
2018-05-08T18:34:11.399Z,26.12
2018-05-08T18:36:38.953Z,26.14
2018-05-08T18:39:06.593Z,25.68
2018-05-08T18:41:34.141Z,25.25
2018-05-08T18:44:01.791Z,25.15
2018-05-08T18:46:30.011Z,24.79
2018-05-08T18:48:57.585Z,24.87
2018-05-08T18:51:25.134Z,24.44
2018-05-08T18:53:52.740Z,24.49
2018-05-08T18:56:20.266Z,24.24
2018-05-08T18:58:47.844Z,24.15
2018-05-08T19:01:15.474Z,23.89
2018-05-08T19:03:43.152Z,23.32
2018-05-08T19:06:10.801Z,23.36
2018-05-08T19:08:40.403Z,23.28
2018-05-08T19:11:13.492Z,22.85
2018-05-08T19:13:41.064Z,22.85
2018-05-08T19:16:08.611Z,22.76
2018-05-08T19:18:41.841Z,22.58
2018-05-08T19:21:09.436Z,22.45
2018-05-08T19:23:37.190Z,22.23
2018-05-08T19:26:04.720Z,22.11
2018-05-08T19:31:36.125Z,21.85
2018-05-08T19:34:03.697Z,21.80
2018-05-08T19:36:36.785Z,21.59
2018-05-08T19:39:05.350Z,21.28
2018-05-08T19:41:32.831Z,21.34
2018-05-08T19:44:00.405Z,21.32
2018-05-08T19:46:27.942Z,21.03
2018-05-08T19:48:55.514Z,20.85
2018-05-08T19:51:23.041Z,20.62
2018-05-08T19:53:50.593Z,20.65
2018-05-08T19:56:18.206Z,20.48
2018-05-08T19:58:45.863Z,20.24
2018-05-08T20:01:13.404Z,20.35
2018-05-08T20:03:40.927Z,20.33
2018-05-08T20:06:25.550Z,20.16
2018-05-08T20:12:06.681Z,20.13
2018-05-08T20:14:34.312Z,19.95
2018-05-08T20:17:01.842Z,19.70
2018-05-08T20:19:29.814Z,19.70
2018-05-08T20:21:57.490Z,19.48
2018-05-08T20:24:25.022Z,19.44
2018-05-08T20:26:52.573Z,19.44
2018-05-08T20:29:20.177Z,19.47
2018-05-08T20:31:48.240Z,19.49
2018-05-08T20:34:15.901Z,19.32
2018-05-08T20:36:43.460Z,18.94
2018-05-08T20:39:10.984Z,18.95
2018-05-08T20:41:38.539Z,19.08
2018-05-08T20:44:06.065Z,18.88
2018-05-08T20:46:33.611Z,18.73
2018-05-08T20:49:01.119Z,18.83
2018-05-08T20:51:28.716Z,18.75
2018-05-08T20:53:56.247Z,18.84
2018-05-08T20:56:23.826Z,18.66
2018-05-08T20:58:51.352Z,18.69
2018-05-08T21:01:18.985Z,18.50
2018-05-08T21:03:46.513Z,18.55
2018-05-08T21:06:14.176Z,18.42
2018-05-08T21:08:41.838Z,18.53
2018-05-08T21:11:09.398Z,18.35
2018-05-08T21:13:36.969Z,18.17
2018-05-08T21:16:04.518Z,18.03
2018-05-08T21:18:32.075Z,17.77
2018-05-08T21:21:00.549Z,17.73
2018-05-08T21:23:28.073Z,17.66
2018-05-08T21:25:56.624Z,17.29
2018-05-08T21:28:29.778Z,17.51
2018-05-08T21:31:02.953Z,17.39
2018-05-08T21:33:30.505Z,17.50
2018-05-08T21:35:58.099Z,17.12
2018-05-08T21:38:25.886Z,17.14
2018-05-08T21:40:56.284Z,17.10
2018-05-08T21:43:24.046Z,17.12
2018-05-08T21:45:51.717Z,17.20
2018-05-08T21:48:19.276Z,17.08
2018-05-08T21:50:46.849Z,17.09
2018-05-08T21:53:14.501Z,16.80
2018-05-08T21:55:44.177Z,16.85
2018-05-08T21:58:12.717Z,16.88
2018-05-08T22:00:41.463Z,16.63
2018-05-08T22:03:11.432Z,16.74
2018-05-08T22:05:41.727Z,16.80
2018-05-08T22:08:09.518Z,16.68
2018-05-08T22:10:39.664Z,16.74
2018-05-08T22:13:07.314Z,16.61
2018-05-08T22:15:35.720Z,16.39
2018-05-08T22:18:05.069Z,16.23
2018-05-08T22:20:34.848Z,16.14
2018-05-08T22:23:04.377Z,16.16
2018-05-08T22:25:33.079Z,15.88
2018-05-08T22:28:01.181Z,15.80
2018-05-08T22:30:29.388Z,15.81
2018-05-08T22:32:59.984Z,15.87
2018-05-08T22:35:30.883Z,15.85
2018-05-08T22:37:58.913Z,15.72
2018-05-08T22:40:27.365Z,15.62
2018-05-08T22:42:55.372Z,15.86
2018-05-08T22:45:24.069Z,15.85
2018-05-08T22:47:52.350Z,15.88
2018-05-08T22:50:20.128Z,15.87
2018-05-08T22:52:48.130Z,15.59
2018-05-08T22:55:17.759Z,15.23
2018-05-08T22:57:45.759Z,15.37
2018-05-08T23:00:15.463Z,15.32
2018-05-08T23:02:44.665Z,15.42
2018-05-08T23:05:12.863Z,15.45
2018-05-08T23:07:42.112Z,14.91
2018-05-08T23:10:10.219Z,14.78
2018-05-08T23:12:38.898Z,14.41
2018-05-08T23:15:07.178Z,14.71
2018-05-08T23:17:34.724Z,14.74
2018-05-08T23:20:02.290Z,14.45
2018-05-08T23:22:29.833Z,14.66
2018-05-08T23:24:57.409Z,14.82
2018-05-08T23:27:24.936Z,14.80
2018-05-08T23:29:52.486Z,14.84
2018-05-08T23:32:20.016Z,14.83
2018-05-08T23:34:47.565Z,14.96
2018-05-08T23:37:15.105Z,15.10
2018-05-08T23:39:42.671Z,14.71
2018-05-08T23:42:10.195Z,14.80
2018-05-08T23:44:37.749Z,14.85
2018-05-08T23:47:05.277Z,14.73
2018-05-08T23:49:32.825Z,14.64
2018-05-08T23:52:01.337Z,14.59
2018-05-08T23:54:28.886Z,14.71
2018-05-08T23:56:56.511Z,14.62
2018-05-08T23:59:24.134Z,14.65
